Terminal Aerodrome Forecast
Issued by NWS

Home | Current Version | Previous Version | Text Only | Print | Product List | Glossary On
Versions: 1 2 3 4 5 6 7 8 9 10 11 12 13 14 15 16 17 18 19 20 21
000
FTUS41 KBGM 291700
TAFITH
TAF
KITH 291733Z 2918/3018 17012KT P6SM OVC070 WS020/18045KT
     FM292300 16012KT 2SM -SN OVC020 WS020/18045KT
      TEMPO 3003/3007 1SM -SN OVC008
     FM300700 16012KT 2SM -SN OVC010
     FM301100 30013G25KT 3SM -SHSN OVC010=

USA.gov is the U.S. government's official web portal to all federal, state and local government web resources and services.